createdAt,value
2022-11-13T00:02:49.122Z,7.40
2022-11-13T00:06:53.634Z,6.90
2022-11-13T00:11:01.858Z,7.40
2022-11-13T00:15:03.405Z,7.60
2022-11-13T00:19:04.407Z,7.40
2022-11-13T00:23:05.392Z,7.30
2022-11-13T00:27:06.624Z,7.10
2022-11-13T00:31:08.891Z,6.90
2022-11-13T00:35:09.789Z,7.00
2022-11-13T00:39:10.803Z,7.30
2022-11-13T00:43:11.901Z,7.20
2022-11-13T00:47:13.069Z,7.50
2022-11-13T00:51:14.349Z,7.40
2022-11-13T00:55:15.514Z,7.20
2022-11-13T00:59:16.474Z,7.20
2022-11-13T01:03:17.764Z,7.00
2022-11-13T01:07:18.813Z,6.90
2022-11-13T01:11:22.749Z,6.60
2022-11-13T01:15:24.060Z,6.70
2022-11-13T01:19:25.253Z,6.60
2022-11-13T01:23:26.418Z,7.20
2022-11-13T01:27:27.516Z,7.00
2022-11-13T01:31:30.626Z,6.80
2022-11-13T01:35:31.620Z,6.70
2022-11-13T01:39:32.767Z,6.80
2022-11-13T01:43:36.472Z,6.60
2022-11-13T01:47:37.762Z,6.60
2022-11-13T01:51:42.216Z,6.50
2022-11-13T01:55:43.406Z,6.50
2022-11-13T01:59:48.381Z,6.20
2022-11-13T02:03:49.555Z,6.50
2022-11-13T02:07:50.981Z,6.30
2022-11-13T02:11:53.404Z,6.50
2022-11-13T02:15:55.371Z,6.50
2022-11-13T02:19:59.780Z,6.90
2022-11-13T02:24:17.535Z,7.00
2022-11-13T02:28:18.699Z,6.80
2022-11-13T02:32:19.955Z,6.50
2022-11-13T02:36:24.404Z,6.30
2022-11-13T02:40:26.314Z,6.30
2022-11-13T02:44:27.484Z,6.70
2022-11-13T02:48:29.094Z,6.60
2022-11-13T02:52:30.775Z,6.00
2022-11-13T02:56:31.914Z,6.00
2022-11-13T03:00:33.405Z,6.40
2022-11-13T03:05:05.199Z,6.20
2022-11-13T03:08:38.156Z,6.40
2022-11-13T03:12:40.071Z,6.80
2022-11-13T03:16:41.186Z,6.80
2022-11-13T03:20:43.143Z,6.70
2022-11-13T03:24:44.169Z,6.60
2022-11-13T03:28:45.926Z,6.50
2022-11-13T03:32:47.162Z,6.40
2022-11-13T03:36:48.226Z,6.10
2022-11-13T03:40:49.981Z,5.80
2022-11-13T03:44:51.022Z,6.00
2022-11-13T03:48:52.200Z,5.90
2022-11-13T03:52:53.354Z,6.50
2022-11-13T03:56:54.644Z,5.70
2022-11-13T04:00:56.080Z,6.40
2022-11-13T04:04:57.153Z,6.30
2022-11-13T04:08:58.221Z,6.20
2022-11-13T04:12:59.437Z,6.20
2022-11-13T04:17:00.565Z,5.70
2022-11-13T04:21:03.775Z,5.50
2022-11-13T04:25:05.761Z,6.20
2022-11-13T04:29:06.755Z,5.60
2022-11-13T04:33:07.931Z,5.70
2022-11-13T04:37:09.092Z,6.30
2022-11-13T04:41:30.799Z,6.30
2022-11-13T04:45:32.007Z,6.00
2022-11-13T04:49:33.409Z,6.00
2022-11-13T04:53:34.603Z,6.00
2022-11-13T04:57:35.953Z,5.70
2022-11-13T05:01:37.288Z,5.70
2022-11-13T05:05:38.295Z,5.90
2022-11-13T05:09:39.269Z,5.80
2022-11-13T05:13:40.362Z,6.20
2022-11-13T05:17:41.385Z,6.20
2022-11-13T05:21:44.070Z,6.00
2022-11-13T05:25:45.238Z,5.70
2022-11-13T05:29:46.428Z,5.70
2022-11-13T05:33:48.697Z,6.10
2022-11-13T05:37:49.946Z,5.90
2022-11-13T05:41:51.125Z,6.30
2022-11-13T05:46:07.062Z,6.10
2022-11-13T05:50:09.143Z,5.90
2022-11-13T05:54:10.916Z,5.50
2022-11-13T05:58:12.282Z,5.80
2022-11-13T06:02:13.591Z,5.30
2022-11-13T06:06:17.060Z,5.10
2022-11-13T06:10:18.135Z,5.30
2022-11-13T06:14:19.257Z,5.50
2022-11-13T06:18:26.519Z,5.70
2022-11-13T06:22:26.626Z,6.10
2022-11-13T06:26:31.211Z,6.00
2022-11-13T06:30:32.429Z,5.30
2022-11-13T06:34:33.381Z,5.50
2022-11-13T06:38:37.411Z,5.80
2022-11-13T06:42:38.856Z,5.80
2022-11-13T06:46:39.817Z,5.80
2022-11-13T06:50:45.671Z,5.70
2022-11-13T06:54:44.054Z,5.50
2022-11-13T06:58:45.266Z,5.60
2022-11-13T07:02:49.618Z,5.40
2022-11-13T07:06:50.665Z,5.90
2022-11-13T07:10:55.685Z,5.80
2022-11-13T07:14:56.787Z,5.80
2022-11-13T07:18:57.730Z,5.90
2022-11-13T07:23:00.481Z,5.80
2022-11-13T07:27:01.438Z,6.20
2022-11-13T07:31:02.522Z,6.20
2022-11-13T07:35:04.336Z,6.40
2022-11-13T07:39:05.288Z,6.60
2022-11-13T07:43:06.483Z,6.70
2022-11-13T07:47:07.638Z,6.90
2022-11-13T07:51:08.615Z,6.90
2022-11-13T07:55:09.823Z,7.00
2022-11-13T07:59:11.013Z,6.50
2022-11-13T08:03:15.085Z,6.50
2022-11-13T08:07:16.501Z,7.40
2022-11-13T08:11:17.762Z,7.60
2022-11-13T08:15:18.744Z,7.90
2022-11-13T08:19:19.951Z,7.80
2022-11-13T08:23:21.423Z,8.20
2022-11-13T08:27:23.196Z,8.10
2022-11-13T08:31:24.316Z,8.30
2022-11-13T08:35:29.186Z,8.50
2022-11-13T08:39:28.286Z,8.80
2022-11-13T08:43:29.482Z,9.10
2022-11-13T08:47:30.521Z,9.30
2022-11-13T08:51:31.539Z,9.50
2022-11-13T08:55:33.453Z,9.70
2022-11-13T08:59:34.742Z,9.80
2022-11-13T09:03:36.358Z,10.10
2022-11-13T09:07:37.732Z,10.40
2022-11-13T09:11:38.914Z,10.70
2022-11-13T09:15:40.157Z,10.90
2022-11-13T09:19:41.277Z,11.20
2022-11-13T09:23:42.428Z,11.50
2022-11-13T09:27:43.571Z,11.60
2022-11-13T09:31:45.096Z,11.90
2022-11-13T09:35:46.238Z,12.30
2022-11-13T09:39:47.352Z,12.60
2022-11-13T09:43:56.591Z,12.80
2022-11-13T09:47:57.537Z,13.20
2022-11-13T09:52:06.362Z,13.40
2022-11-13T09:56:08.952Z,13.80
2022-11-13T10:00:18.253Z,14.20
2022-11-13T10:04:23.108Z,14.10
2022-11-13T10:08:30.781Z,14.70
2022-11-13T10:12:33.336Z,14.90
2022-11-13T10:16:40.877Z,15.00
2022-11-13T10:20:56.428Z,15.10
2022-11-13T10:25:01.265Z,15.40
2022-11-13T10:29:12.151Z,15.40
2022-11-13T10:33:19.253Z,16.20
2022-11-13T10:37:29.636Z,16.50
2022-11-13T10:41:30.906Z,16.70
2022-11-13T10:45:32.664Z,17.30
2022-11-13T10:49:33.664Z,17.10
2022-11-13T10:53:40.521Z,17.20
2022-11-13T10:57:43.110Z,17.10
2022-11-13T11:01:46.583Z,17.60
2022-11-13T11:05:59.435Z,16.50
2022-11-13T11:10:01.310Z,16.10
2022-11-13T11:14:18.508Z,16.40
2022-11-13T11:18:55.555Z,17.00
2022-11-13T11:23:24.683Z,17.10
2022-11-13T11:27:29.448Z,18.30
2022-11-13T11:31:44.009Z,16.40
2022-11-13T11:35:51.594Z,17.90
2022-11-13T11:40:11.209Z,18.60
2022-11-13T11:44:19.246Z,17.30
2022-11-13T11:48:24.050Z,16.30
2022-11-13T11:52:31.803Z,15.50
2022-11-13T11:56:54.877Z,14.90
2022-11-13T12:01:02.953Z,15.30
2022-11-13T12:05:24.589Z,15.50
2022-11-13T12:09:39.081Z,15.80
2022-11-13T12:13:56.240Z,15.80
2022-11-13T12:18:28.510Z,16.00
2022-11-13T12:22:41.540Z,16.80
2022-11-13T12:27:07.053Z,17.10
2022-11-13T12:31:17.703Z,17.90
2022-11-13T12:35:21.363Z,18.10
2022-11-13T12:39:57.659Z,18.50
2022-11-13T12:44:02.680Z,18.60
2022-11-13T12:48:18.237Z,18.80
2022-11-13T12:52:23.552Z,20.10
2022-11-13T12:56:28.373Z,21.00
2022-11-13T13:00:30.660Z,21.10
2022-11-13T13:04:52.467Z,21.60
2022-11-13T13:09:16.694Z,21.50
2022-11-13T13:13:24.812Z,20.30
2022-11-13T13:17:25.972Z,17.80
2022-11-13T13:21:27.090Z,18.30
2022-11-13T13:25:34.503Z,17.70
2022-11-13T13:29:39.297Z,16.00
2022-11-13T13:34:10.172Z,15.40
2022-11-13T13:38:33.334Z,15.20
2022-11-13T13:43:00.041Z,15.40
2022-11-13T13:47:05.157Z,15.40
2022-11-13T13:51:12.948Z,14.90
2022-11-13T13:55:30.020Z,14.50
2022-11-13T13:59:35.637Z,14.20
2022-11-13T14:03:36.530Z,14.40
2022-11-13T14:07:41.373Z,14.90
2022-11-13T14:11:42.424Z,14.70
2022-11-13T14:15:43.999Z,14.10
2022-11-13T14:19:54.123Z,14.20
2022-11-13T14:23:56.979Z,14.20
2022-11-13T14:27:58.119Z,14.10
2022-11-13T14:32:05.812Z,13.90
2022-11-13T14:36:07.811Z,14.30
2022-11-13T14:40:25.234Z,14.00
2022-11-13T14:44:32.145Z,14.20
2022-11-13T14:48:34.341Z,13.70
2022-11-13T14:52:35.483Z,14.00
2022-11-13T14:56:38.916Z,14.30
2022-11-13T15:00:40.351Z,15.00
2022-11-13T15:04:41.321Z,15.50
2022-11-13T15:08:44.468Z,14.40
2022-11-13T15:12:45.712Z,15.50
2022-11-13T15:16:49.256Z,15.80
2022-11-13T15:20:50.430Z,15.90
2022-11-13T15:24:51.444Z,16.20
2022-11-13T15:28:52.644Z,16.10
2022-11-13T15:32:54.243Z,15.90
2022-11-13T15:36:55.482Z,15.90
2022-11-13T15:40:56.954Z,15.60
2022-11-13T15:44:58.180Z,15.50
2022-11-13T15:48:59.378Z,15.10
2022-11-13T15:53:05.421Z,15.10
2022-11-13T15:57:07.409Z,14.70
2022-11-13T16:01:11.303Z,14.60
2022-11-13T16:05:12.538Z,14.40
2022-11-13T16:09:14.224Z,14.20
2022-11-13T16:13:15.333Z,14.10
2022-11-13T16:17:19.702Z,13.90
2022-11-13T16:21:21.809Z,13.80
2022-11-13T16:25:22.919Z,13.70
2022-11-13T16:29:24.676Z,13.30
2022-11-13T16:33:26.151Z,13.10
2022-11-13T16:37:27.676Z,13.00
2022-11-13T16:41:31.384Z,12.80
2022-11-13T16:45:32.632Z,12.60
2022-11-13T16:49:33.766Z,12.30
2022-11-13T16:53:34.935Z,12.10
2022-11-13T16:57:36.517Z,11.70
2022-11-13T17:01:38.050Z,11.40
2022-11-13T17:05:39.185Z,11.80
2022-11-13T17:09:42.423Z,11.70
2022-11-13T17:13:45.659Z,11.40
2022-11-13T17:17:47.299Z,10.80
2022-11-13T17:21:48.343Z,11.10
2022-11-13T17:25:49.472Z,11.00
2022-11-13T17:29:50.481Z,11.00
2022-11-13T17:33:53.307Z,11.10
2022-11-13T17:37:55.012Z,10.80
2022-11-13T17:41:55.944Z,10.70
2022-11-13T17:45:56.953Z,10.30
2022-11-13T17:50:02.466Z,10.30
2022-11-13T17:54:01.468Z,10.40
2022-11-13T17:58:03.142Z,10.40
2022-11-13T18:02:04.756Z,10.00
2022-11-13T18:06:09.097Z,10.00
2022-11-13T18:10:10.777Z,9.90
2022-11-13T18:14:12.601Z,10.00
2022-11-13T18:18:14.175Z,9.80
2022-11-13T18:22:16.074Z,8.80
2022-11-13T18:26:18.634Z,8.80
2022-11-13T18:30:20.526Z,9.40
2022-11-13T18:34:22.081Z,8.20
2022-11-13T18:38:23.157Z,9.60
2022-11-13T18:42:24.437Z,9.60
2022-11-13T18:46:25.550Z,9.50
2022-11-13T18:50:27.116Z,8.70
2022-11-13T18:54:28.404Z,8.10
2022-11-13T18:58:30.380Z,8.80
2022-11-13T19:02:31.432Z,9.40
2022-11-13T19:06:34.183Z,9.40
2022-11-13T19:10:35.401Z,9.20
2022-11-13T19:14:36.532Z,9.10
2022-11-13T19:18:39.003Z,9.00
2022-11-13T19:22:40.345Z,8.70
2022-11-13T19:26:42.743Z,8.70
2022-11-13T19:30:45.850Z,8.80
2022-11-13T19:34:47.040Z,8.60
2022-11-13T19:38:48.185Z,8.60
2022-11-13T19:42:49.252Z,8.50
2022-11-13T19:46:50.890Z,8.40
2022-11-13T19:50:53.106Z,8.30
2022-11-13T19:54:54.455Z,8.30
2022-11-13T19:58:57.892Z,8.10
2022-11-13T20:03:07.430Z,8.00
2022-11-13T20:07:08.651Z,7.70
2022-11-13T20:11:13.769Z,8.00
2022-11-13T20:15:16.247Z,8.30
2022-11-13T20:19:17.253Z,8.20
2022-11-13T20:23:18.694Z,8.20
2022-11-13T20:27:20.016Z,8.00
2022-11-13T20:31:24.793Z,7.30
2022-11-13T20:35:28.854Z,7.80
2022-11-13T20:39:31.677Z,8.20
2022-11-13T20:43:36.485Z,8.00
2022-11-13T20:47:38.659Z,7.80
2022-11-13T20:51:41.326Z,7.80
2022-11-13T20:55:45.618Z,7.90
2022-11-13T20:59:49.940Z,7.50
2022-11-13T21:03:53.511Z,7.30
2022-11-13T21:07:55.126Z,7.50
2022-11-13T21:12:00.639Z,7.40
2022-11-13T21:16:09.910Z,7.50
2022-11-13T21:20:13.025Z,7.90
2022-11-13T21:24:17.834Z,7.60
2022-11-13T21:28:23.762Z,7.60
2022-11-13T21:32:27.464Z,7.40
2022-11-13T21:36:32.896Z,7.50
2022-11-13T21:40:36.271Z,7.10
2022-11-13T21:44:42.914Z,7.50
2022-11-13T21:48:45.653Z,7.60
2022-11-13T21:52:48.809Z,7.30
2022-11-13T21:56:52.497Z,7.00
2022-11-13T22:00:56.055Z,6.70
2022-11-13T22:04:58.645Z,6.60
2022-11-13T22:09:03.167Z,6.80
2022-11-13T22:13:06.164Z,6.50
2022-11-13T22:17:10.057Z,7.30
2022-11-13T22:21:13.685Z,7.20
2022-11-13T22:25:17.325Z,7.40
2022-11-13T22:29:21.580Z,7.30
2022-11-13T22:33:29.759Z,7.30
2022-11-13T22:37:34.628Z,6.80
2022-11-13T22:41:37.955Z,7.20
2022-11-13T22:45:40.518Z,7.00
2022-11-13T22:49:43.316Z,6.10
2022-11-13T22:53:51.104Z,5.40
2022-11-13T22:57:53.732Z,5.40
2022-11-13T23:01:55.860Z,6.80
2022-11-13T23:05:57.303Z,6.90
2022-11-13T23:09:58.282Z,6.90
2022-11-13T23:14:02.174Z,7.20
2022-11-13T23:18:07.119Z,6.60
2022-11-13T23:22:06.597Z,7.10
2022-11-13T23:26:09.308Z,7.00
2022-11-13T23:30:11.623Z,6.70
2022-11-13T23:34:13.216Z,7.10
2022-11-13T23:38:14.428Z,7.00
2022-11-13T23:42:20.695Z,6.90
2022-11-13T23:46:18.575Z,6.70
2022-11-13T23:50:19.694Z,6.40
2022-11-13T23:54:21.321Z,6.20
2022-11-13T23:58:22.763Z,7.00
